createdAt,value
2022-12-04T00:01:31.571Z,23.70
2022-12-04T00:04:02.190Z,25.20
2022-12-04T00:06:32.279Z,24.60
2022-12-04T00:09:02.783Z,23.70
2022-12-04T00:11:33.862Z,23.20
2022-12-04T00:14:07.204Z,21.40
2022-12-04T00:16:38.078Z,21.90
2022-12-04T00:19:07.074Z,21.50
2022-12-04T00:21:37.208Z,22.20
2022-12-04T00:24:08.017Z,23.20
2022-12-04T00:26:36.843Z,24.50
2022-12-04T00:29:08.964Z,24.10
2022-12-04T00:31:40.698Z,23.70
2022-12-04T00:34:11.170Z,22.00
2022-12-04T00:36:41.133Z,22.50
2022-12-04T00:39:11.447Z,22.00
2022-12-04T00:41:43.517Z,21.30
2022-12-04T00:44:13.684Z,23.20
2022-12-04T00:46:44.548Z,24.40
2022-12-04T00:49:14.779Z,23.90
2022-12-04T00:51:44.971Z,23.20
2022-12-04T00:54:15.174Z,24.10
2022-12-04T00:56:45.439Z,22.80
2022-12-04T00:59:15.924Z,22.20
2022-12-04T01:01:46.217Z,22.90
2022-12-04T01:04:16.944Z,22.50
2022-12-04T01:06:47.581Z,23.20
2022-12-04T01:09:17.842Z,22.30
2022-12-04T01:11:48.054Z,19.10
2022-12-04T01:14:18.571Z,19.90
2022-12-04T01:16:49.035Z,18.10
2022-12-04T01:19:18.857Z,17.20
2022-12-04T01:21:49.001Z,17.80
2022-12-04T01:24:19.446Z,19.80
2022-12-04T01:26:49.897Z,20.70
2022-12-04T01:29:20.426Z,19.70
2022-12-04T01:31:50.601Z,19.90
2022-12-04T01:34:20.348Z,18.90
2022-12-04T01:36:51.596Z,18.90
2022-12-04T01:39:21.610Z,17.80
2022-12-04T01:41:51.513Z,17.10
2022-12-04T01:44:24.008Z,17.80
2022-12-04T01:46:56.892Z,18.00
2022-12-04T01:49:40.137Z,18.20
2022-12-04T01:52:20.284Z,17.90
2022-12-04T01:55:00.782Z,17.50
2022-12-04T01:57:33.043Z,18.60
2022-12-04T02:00:12.753Z,17.60
2022-12-04T02:02:46.350Z,17.30
2022-12-04T02:05:19.787Z,15.10
2022-12-04T02:07:53.634Z,15.20
2022-12-04T02:10:34.456Z,15.00
2022-12-04T02:13:48.916Z,14.50
2022-12-04T02:16:48.629Z,14.70
2022-12-04T02:19:51.615Z,15.70
2022-12-04T02:22:56.305Z,16.30
2022-12-04T02:25:26.978Z,13.10
2022-12-04T02:28:30.224Z,13.20
2022-12-04T02:31:02.932Z,13.90
2022-12-04T02:33:43.695Z,14.80
2022-12-04T02:36:42.691Z,14.10
2022-12-04T02:39:25.296Z,15.50
2022-12-04T02:42:03.803Z,14.20
2022-12-04T02:44:54.254Z,14.00
2022-12-04T02:47:27.509Z,15.60
2022-12-04T02:50:05.878Z,16.00
2022-12-04T02:52:47.102Z,14.90
2022-12-04T02:55:44.208Z,15.10
2022-12-04T02:58:32.828Z,13.90
2022-12-04T03:01:20.425Z,15.40
2022-12-04T03:04:12.299Z,14.40
2022-12-04T03:06:46.384Z,15.10
2022-12-04T03:09:37.194Z,14.60
2022-12-04T03:12:20.954Z,13.20
2022-12-04T03:15:08.953Z,14.90
2022-12-04T03:17:48.383Z,14.10
2022-12-04T03:20:20.205Z,13.50
2022-12-04T03:22:58.070Z,14.10
2022-12-04T03:25:40.295Z,14.50
2022-12-04T03:28:43.445Z,13.20
2022-12-04T03:31:16.666Z,13.10
2022-12-04T03:33:50.845Z,12.60
2022-12-04T03:36:29.925Z,13.00
2022-12-04T03:39:13.415Z,13.20
2022-12-04T03:42:04.627Z,13.40
2022-12-04T03:44:45.062Z,13.30
2022-12-04T03:47:34.190Z,12.50
2022-12-04T03:52:51.707Z,11.80
2022-12-04T03:55:24.517Z,12.20
2022-12-04T03:58:00.541Z,11.90
2022-12-04T04:00:33.529Z,10.90
2022-12-04T04:03:34.667Z,12.40
2022-12-04T04:06:16.848Z,11.60
2022-12-04T04:08:54.061Z,11.70
2022-12-04T04:11:49.833Z,12.80
2022-12-04T04:14:55.537Z,11.10
2022-12-04T04:17:50.835Z,10.40
2022-12-04T04:20:49.196Z,11.60
2022-12-04T04:23:41.777Z,12.40
2022-12-04T04:26:15.912Z,10.40
2022-12-04T04:28:46.990Z,11.50
2022-12-04T04:32:02.787Z,11.10
2022-12-04T04:34:53.144Z,12.00
2022-12-04T04:37:41.774Z,11.10
2022-12-04T04:40:36.389Z,11.10
2022-12-04T04:43:17.885Z,11.20
2022-12-04T04:46:22.106Z,9.90
2022-12-04T04:48:59.461Z,10.10
2022-12-04T04:51:34.708Z,9.80
2022-12-04T04:54:09.564Z,10.30
2022-12-04T04:56:48.181Z,9.90
2022-12-04T04:59:19.006Z,10.20
2022-12-04T05:01:49.607Z,10.30
2022-12-04T05:04:20.096Z,10.10
2022-12-04T05:06:50.150Z,8.60
2022-12-04T05:09:20.386Z,10.30
2022-12-04T05:11:50.475Z,9.30
2022-12-04T05:14:20.803Z,8.20
2022-12-04T05:16:50.778Z,8.90
2022-12-04T05:19:42.828Z,8.70
2022-12-04T05:22:13.721Z,8.80
2022-12-04T05:24:44.111Z,9.10
2022-12-04T05:27:14.048Z,9.30
2022-12-04T05:29:44.205Z,9.00
2022-12-04T05:32:14.966Z,9.50
2022-12-04T05:34:47.587Z,9.00
2022-12-04T05:37:17.996Z,9.50
2022-12-04T05:39:48.279Z,8.20
2022-12-04T05:42:18.734Z,10.00
2022-12-04T05:44:50.522Z,10.30
2022-12-04T05:47:20.516Z,9.00
2022-12-04T05:49:50.582Z,10.30
2022-12-04T05:52:20.923Z,9.30
2022-12-04T05:54:51.416Z,9.70
2022-12-04T05:57:21.051Z,9.90
2022-12-04T05:59:53.948Z,9.70
2022-12-04T06:02:24.552Z,9.90
2022-12-04T06:04:54.556Z,9.50
2022-12-04T06:07:23.421Z,10.60
2022-12-04T06:09:55.960Z,10.70
2022-12-04T06:12:25.915Z,9.70
2022-12-04T06:14:56.143Z,9.60
2022-12-04T06:17:25.987Z,10.00
2022-12-04T06:19:56.750Z,9.30
2022-12-04T06:22:26.843Z,9.80
2022-12-04T06:24:57.208Z,8.90
2022-12-04T06:27:28.281Z,9.80
2022-12-04T06:29:59.050Z,10.30
2022-12-04T06:32:29.432Z,10.80
2022-12-04T06:34:59.379Z,10.90
2022-12-04T06:37:28.256Z,10.50
2022-12-04T06:39:58.390Z,10.70
2022-12-04T06:42:28.678Z,9.30
2022-12-04T06:44:58.138Z,9.50
2022-12-04T06:47:28.170Z,11.60
2022-12-04T06:49:57.796Z,9.80
2022-12-04T06:52:28.191Z,9.90
2022-12-04T06:54:59.437Z,9.90
2022-12-04T06:57:29.340Z,9.20
2022-12-04T06:59:59.048Z,9.10
2022-12-04T07:02:29.390Z,8.80
2022-12-04T07:04:59.660Z,9.80
2022-12-04T07:07:29.684Z,10.10
2022-12-04T07:09:59.476Z,9.10
2022-12-04T07:12:29.544Z,9.70
2022-12-04T07:14:59.073Z,9.50
2022-12-04T07:17:28.641Z,9.70
2022-12-04T07:19:57.749Z,8.90
2022-12-04T07:22:28.625Z,9.20
2022-12-04T07:24:58.815Z,8.10
2022-12-04T07:27:31.868Z,7.20
2022-12-04T07:30:01.514Z,8.40
2022-12-04T07:32:31.984Z,9.30
2022-12-04T07:35:02.120Z,8.30
2022-12-04T07:37:32.594Z,9.60
2022-12-04T07:40:04.163Z,9.10
2022-12-04T07:42:34.085Z,9.70
2022-12-04T07:45:04.205Z,8.70
2022-12-04T07:47:36.917Z,8.60
2022-12-04T07:50:09.209Z,8.00
2022-12-04T07:52:40.533Z,8.80
2022-12-04T07:55:11.053Z,8.70
2022-12-04T07:57:41.519Z,8.60
2022-12-04T08:00:12.550Z,8.90
2022-12-04T08:02:42.642Z,9.30
2022-12-04T08:05:11.532Z,8.80
2022-12-04T08:07:41.681Z,9.70
2022-12-04T08:10:12.130Z,9.10
2022-12-04T08:12:42.191Z,8.70
2022-12-04T08:15:12.250Z,8.80
2022-12-04T08:17:44.214Z,8.30
2022-12-04T08:20:14.259Z,9.10
2022-12-04T08:22:44.157Z,10.20
2022-12-04T08:25:13.744Z,8.80
2022-12-04T08:27:47.773Z,8.10
2022-12-04T08:30:18.218Z,8.30
2022-12-04T08:32:48.778Z,7.90
2022-12-04T08:35:18.856Z,7.50
2022-12-04T08:37:48.853Z,8.20
2022-12-04T08:40:18.789Z,6.90
2022-12-04T08:42:48.805Z,7.80
2022-12-04T08:45:18.805Z,7.60
2022-12-04T08:47:52.400Z,8.10
2022-12-04T08:50:23.314Z,8.00
2022-12-04T08:52:53.356Z,7.70
2022-12-04T08:55:23.512Z,8.40
2022-12-04T08:57:53.707Z,8.80
2022-12-04T09:00:26.447Z,8.30
2022-12-04T09:02:56.495Z,8.80
2022-12-04T09:05:26.649Z,8.90
2022-12-04T09:07:59.585Z,8.00
2022-12-04T09:10:30.922Z,9.10
2022-12-04T09:13:01.043Z,9.20
2022-12-04T09:15:38.964Z,9.30
2022-12-04T09:18:14.002Z,9.50
2022-12-04T09:20:44.524Z,9.70
2022-12-04T09:23:14.941Z,9.00
2022-12-04T09:25:45.779Z,8.60
2022-12-04T09:28:16.027Z,8.40
2022-12-04T09:30:47.068Z,9.70
2022-12-04T09:33:16.952Z,10.80
2022-12-04T09:35:47.276Z,10.00
2022-12-04T09:38:17.655Z,9.30
2022-12-04T09:41:11.502Z,8.60
2022-12-04T09:44:02.479Z,8.80
2022-12-04T09:46:51.399Z,9.20
2022-12-04T09:49:30.234Z,9.40
2022-12-04T09:52:04.252Z,9.40
2022-12-04T09:54:42.957Z,8.70
2022-12-04T09:57:42.753Z,8.60
2022-12-04T10:00:16.147Z,8.70
2022-12-04T10:02:56.006Z,8.20
2022-12-04T10:05:50.864Z,10.90
2022-12-04T10:08:32.400Z,11.20
2022-12-04T10:11:01.908Z,10.60
2022-12-04T10:13:47.647Z,11.10
2022-12-04T10:16:29.650Z,11.40
2022-12-04T10:19:36.589Z,11.00
2022-12-04T10:22:13.186Z,11.10
2022-12-04T10:24:54.074Z,11.50
2022-12-04T10:27:46.722Z,11.70
2022-12-04T10:30:19.836Z,11.50
2022-12-04T10:33:12.389Z,12.20
2022-12-04T10:35:45.826Z,11.30
2022-12-04T10:38:39.069Z,12.60
2022-12-04T10:41:34.558Z,12.60
2022-12-04T10:44:05.569Z,13.20
2022-12-04T10:46:36.309Z,13.00
2022-12-04T10:49:10.487Z,12.90
2022-12-04T10:51:42.341Z,13.10
2022-12-04T10:54:26.308Z,13.10
2022-12-04T10:56:59.362Z,13.20
2022-12-04T10:59:30.362Z,13.10
2022-12-04T11:02:35.076Z,11.50
2022-12-04T11:05:23.132Z,13.00
2022-12-04T11:07:55.415Z,12.90
2022-12-04T11:10:43.832Z,13.60
2022-12-04T11:13:20.976Z,13.10
2022-12-04T11:15:54.260Z,13.40
2022-12-04T11:18:27.094Z,13.00
2022-12-04T11:21:07.567Z,12.50
2022-12-04T11:23:50.210Z,12.90
2022-12-04T11:26:42.992Z,12.40
2022-12-04T11:29:18.784Z,13.70
2022-12-04T11:31:52.352Z,14.30
2022-12-04T11:34:27.459Z,14.10
2022-12-04T11:36:58.949Z,13.80
2022-12-04T11:39:35.733Z,13.30
2022-12-04T11:42:36.258Z,13.40
2022-12-04T11:48:02.459Z,14.40
2022-12-04T11:50:48.664Z,14.10
2022-12-04T11:53:23.838Z,13.40
2022-12-04T11:56:25.409Z,14.60
2022-12-04T11:59:13.730Z,13.90
2022-12-04T12:02:12.249Z,13.90
2022-12-04T12:04:54.912Z,15.40
2022-12-04T12:07:49.642Z,14.90
2022-12-04T12:10:28.604Z,16.00
2022-12-04T12:13:10.954Z,15.20
2022-12-04T12:15:57.046Z,13.60
2022-12-04T12:18:35.394Z,13.50
2022-12-04T12:21:18.764Z,13.00
2022-12-04T12:24:16.790Z,13.40
2022-12-04T12:26:47.618Z,13.40
2022-12-04T12:29:49.993Z,12.80
2022-12-04T12:32:44.938Z,13.30
2022-12-04T12:35:28.381Z,13.00
2022-12-04T12:38:06.473Z,12.50
2022-12-04T12:40:45.593Z,13.50
2022-12-04T12:43:36.242Z,15.70
2022-12-04T12:46:49.404Z,15.90
2022-12-04T12:49:25.860Z,14.90
2022-12-04T12:52:42.727Z,14.10
2022-12-04T12:55:33.789Z,15.50
2022-12-04T12:58:26.152Z,14.60
2022-12-04T13:01:25.153Z,15.00
2022-12-04T13:04:28.842Z,14.80
2022-12-04T13:07:12.955Z,14.40
2022-12-04T13:09:51.514Z,14.90
2022-12-04T13:12:23.225Z,14.30
2022-12-04T13:14:52.597Z,14.20
2022-12-04T13:17:37.716Z,13.70
2022-12-04T13:20:37.937Z,13.80
2022-12-04T13:23:28.918Z,15.50
2022-12-04T13:26:36.665Z,16.20
2022-12-04T13:30:02.397Z,15.80
2022-12-04T13:32:50.785Z,15.70
2022-12-04T13:35:44.913Z,14.70
2022-12-04T13:38:24.130Z,14.60
2022-12-04T13:40:57.758Z,13.10
2022-12-04T13:43:42.966Z,13.50
2022-12-04T13:46:31.514Z,13.80
2022-12-04T13:49:27.828Z,15.10
2022-12-04T13:51:59.588Z,13.90
2022-12-04T13:54:37.402Z,14.80
2022-12-04T13:57:19.902Z,15.70
2022-12-04T13:59:50.504Z,14.50
2022-12-04T14:02:26.799Z,14.50
2022-12-04T14:05:08.562Z,13.90
2022-12-04T14:08:05.710Z,14.60
2022-12-04T14:10:39.821Z,15.10
2022-12-04T14:13:24.372Z,15.50
2022-12-04T14:16:32.948Z,14.50
2022-12-04T14:19:04.787Z,14.80
2022-12-04T14:21:42.435Z,16.40
2022-12-04T14:24:47.860Z,15.20
2022-12-04T14:27:46.496Z,14.70
2022-12-04T14:30:24.207Z,14.50
2022-12-04T14:33:24.742Z,12.50
2022-12-04T14:35:59.958Z,13.60
2022-12-04T14:38:32.778Z,13.80
2022-12-04T14:41:02.113Z,13.20
2022-12-04T14:43:40.130Z,13.50
2022-12-04T14:46:37.567Z,13.80
2022-12-04T14:49:26.368Z,12.20
2022-12-04T14:52:12.744Z,13.60
2022-12-04T14:55:07.492Z,13.20
2022-12-04T14:58:30.376Z,13.10
2022-12-04T15:01:08.642Z,13.60
2022-12-04T15:09:20.871Z,13.40
2022-12-04T15:12:18.768Z,12.70
2022-12-04T15:14:50.682Z,12.00
2022-12-04T15:17:20.628Z,12.00
2022-12-04T15:19:50.756Z,11.50
2022-12-04T15:22:29.182Z,12.20
2022-12-04T15:25:00.422Z,12.70
2022-12-04T15:27:32.991Z,35.10
2022-12-04T15:30:04.525Z,16.10
2022-12-04T15:32:35.168Z,12.30
2022-12-04T15:35:17.541Z,12.00
2022-12-04T15:37:47.541Z,13.60
2022-12-04T15:40:23.907Z,15.70
2022-12-04T15:42:55.484Z,33.40
2022-12-04T15:45:35.481Z,35.40
2022-12-04T15:48:05.524Z,31.90
2022-12-04T15:50:37.721Z,17.80
2022-12-04T15:53:22.173Z,27.10
2022-12-04T15:56:08.147Z,16.90
2022-12-04T15:58:50.440Z,11.90
2022-12-04T16:01:21.482Z,19.60
2022-12-04T16:03:54.327Z,13.80
2022-12-04T16:06:24.558Z,22.60
2022-12-04T16:09:13.168Z,11.10
2022-12-04T16:11:44.281Z,13.00
2022-12-04T16:14:16.300Z,14.60
2022-12-04T16:16:50.774Z,16.10
2022-12-04T16:19:37.050Z,28.20
2022-12-04T16:22:20.790Z,21.20
2022-12-04T16:24:51.905Z,13.50
2022-12-04T16:27:24.113Z,13.80
2022-12-04T16:29:56.595Z,14.20
2022-12-04T16:32:31.796Z,13.70
2022-12-04T16:35:02.038Z,13.10
2022-12-04T16:37:32.560Z,11.90
2022-12-04T16:40:07.604Z,48.30
2022-12-04T16:42:37.520Z,48.20
2022-12-04T16:45:23.419Z,33.60
2022-12-04T16:47:53.528Z,42.70
2022-12-04T16:50:23.539Z,36.50
2022-12-04T16:52:54.005Z,37.00
2022-12-04T16:55:36.309Z,34.70
2022-12-04T16:58:09.981Z,36.70
2022-12-04T17:00:43.937Z,39.30
2022-12-04T17:03:31.475Z,37.70
2022-12-04T17:06:04.170Z,46.40
2022-12-04T17:08:34.432Z,66.60
2022-12-04T17:11:04.088Z,48.40
2022-12-04T17:13:37.957Z,44.90
2022-12-04T17:16:15.077Z,52.90
2022-12-04T17:18:45.609Z,59.30
2022-12-04T17:21:15.875Z,55.00
2022-12-04T17:23:46.259Z,60.00
2022-12-04T17:26:16.675Z,77.70
2022-12-04T17:28:51.338Z,61.30
2022-12-04T17:31:31.024Z,65.00
2022-12-04T17:34:00.689Z,73.60
2022-12-04T17:36:31.053Z,57.10
2022-12-04T17:39:04.795Z,51.00
2022-12-04T17:41:36.582Z,42.30
2022-12-04T17:44:06.584Z,82.80
2022-12-04T17:46:37.249Z,68.60
2022-12-04T17:49:07.719Z,75.10
2022-12-04T17:51:38.143Z,59.60
2022-12-04T17:54:09.041Z,51.30
2022-12-04T17:56:43.297Z,50.90
2022-12-04T17:59:16.556Z,61.40
2022-12-04T18:01:46.921Z,72.50
2022-12-04T18:04:19.793Z,72.40
2022-12-04T18:06:50.377Z,53.00
2022-12-04T18:09:20.876Z,74.00
2022-12-04T18:11:51.259Z,105.50
2022-12-04T18:14:24.269Z,61.90
2022-12-04T18:16:58.597Z,63.20
2022-12-04T18:19:29.603Z,71.70
2022-12-04T18:22:00.189Z,53.80
2022-12-04T18:24:30.201Z,71.60
2022-12-04T18:27:00.121Z,89.90
2022-12-04T18:29:30.574Z,94.70
2022-12-04T18:32:01.124Z,83.50
2022-12-04T18:34:32.316Z,74.80
2022-12-04T18:37:02.547Z,77.90
2022-12-04T18:39:32.896Z,68.50
2022-12-04T18:42:03.211Z,69.60
2022-12-04T18:44:33.484Z,73.30
2022-12-04T18:47:03.829Z,70.20
2022-12-04T18:49:34.293Z,74.90
2022-12-04T18:52:04.626Z,64.60
2022-12-04T18:54:34.905Z,64.90
2022-12-04T18:57:05.044Z,61.80
2022-12-04T18:59:36.844Z,53.00
2022-12-04T19:02:07.121Z,60.70
2022-12-04T19:04:37.192Z,73.40
2022-12-04T19:07:07.086Z,78.70
2022-12-04T19:10:09.285Z,78.30
2022-12-04T19:12:27.116Z,78.80
2022-12-04T19:14:56.995Z,80.70
2022-12-04T19:17:27.192Z,99.00
2022-12-04T19:19:56.266Z,95.10
2022-12-04T19:22:26.644Z,72.60
2022-12-04T19:24:56.596Z,66.30
2022-12-04T19:27:28.048Z,71.90
2022-12-04T19:29:58.364Z,58.60
2022-12-04T19:32:28.785Z,63.00
2022-12-04T19:34:58.840Z,52.10
2022-12-04T19:37:28.875Z,51.10
2022-12-04T19:39:59.211Z,55.20
2022-12-04T19:42:31.541Z,47.30
2022-12-04T19:45:01.953Z,45.90
2022-12-04T19:47:33.058Z,26.40
2022-12-04T19:50:03.206Z,48.50
2022-12-04T19:52:36.783Z,48.00
2022-12-04T19:55:09.383Z,39.10
2022-12-04T19:57:39.617Z,35.50
2022-12-04T20:00:10.638Z,41.20
2022-12-04T20:02:43.896Z,40.10
2022-12-04T20:05:13.948Z,37.00
2022-12-04T20:07:44.231Z,42.90
2022-12-04T20:10:14.286Z,51.90
2022-12-04T20:12:44.570Z,56.20
2022-12-04T20:15:14.587Z,50.60
2022-12-04T20:17:44.621Z,57.90
2022-12-04T20:20:14.444Z,50.50
2022-12-04T20:22:44.748Z,25.30
2022-12-04T20:25:14.423Z,21.20
2022-12-04T20:27:44.621Z,31.50
2022-12-04T20:30:14.515Z,29.60
2022-12-04T20:32:44.763Z,38.00
2022-12-04T20:35:15.225Z,47.60
2022-12-04T20:37:45.455Z,42.80
2022-12-04T20:40:15.577Z,42.80
2022-12-04T20:42:45.746Z,42.30
2022-12-04T20:45:15.847Z,49.90
2022-12-04T20:47:46.290Z,32.50
2022-12-04T20:50:16.660Z,40.40
2022-12-04T20:52:46.523Z,40.00
2022-12-04T20:55:16.644Z,39.50
2022-12-04T20:57:47.086Z,38.50
2022-12-04T21:00:18.115Z,41.10
2022-12-04T21:02:46.998Z,37.30
2022-12-04T21:05:16.818Z,37.50
2022-12-04T21:07:47.199Z,35.60
2022-12-04T21:10:17.394Z,37.90
2022-12-04T21:13:07.290Z,42.40
2022-12-04T21:15:57.377Z,34.90
2022-12-04T21:18:27.557Z,39.50
2022-12-04T21:20:56.498Z,47.00
2022-12-04T21:23:25.339Z,37.40
2022-12-04T21:25:58.010Z,43.30
2022-12-04T21:28:27.925Z,41.30
2022-12-04T21:31:07.485Z,43.60
2022-12-04T21:33:37.974Z,28.90
2022-12-04T21:36:11.183Z,14.40
2022-12-04T21:38:41.557Z,14.90
2022-12-04T21:41:33.076Z,45.80
2022-12-04T21:44:07.186Z,47.90
2022-12-04T21:46:37.593Z,27.70
2022-12-04T21:49:07.534Z,32.70
2022-12-04T21:51:56.780Z,39.30
2022-12-04T21:54:28.780Z,36.70
2022-12-04T21:56:59.294Z,37.60
2022-12-04T21:59:29.111Z,38.90
2022-12-04T22:01:59.697Z,26.60
2022-12-04T22:04:29.849Z,15.50
2022-12-04T22:06:59.911Z,39.50
2022-12-04T22:09:29.865Z,42.50
2022-12-04T22:11:59.936Z,35.60
2022-12-04T22:14:29.996Z,33.20
2022-12-04T22:17:00.450Z,31.70
2022-12-04T22:19:30.856Z,38.90
2022-12-04T22:22:00.937Z,32.70
2022-12-04T22:24:31.007Z,29.20
2022-12-04T22:27:00.339Z,33.60
2022-12-04T22:32:21.598Z,33.10
2022-12-04T22:34:52.041Z,30.80
2022-12-04T22:37:22.439Z,29.40
2022-12-04T22:39:52.702Z,28.60
2022-12-04T22:42:23.058Z,26.90
2022-12-04T22:44:53.317Z,25.90
2022-12-04T22:47:23.597Z,24.60
2022-12-04T22:49:53.577Z,23.20
2022-12-04T22:52:23.932Z,20.10
2022-12-04T22:54:53.794Z,22.70
2022-12-04T22:57:24.471Z,24.20
2022-12-04T22:59:54.707Z,25.00
2022-12-04T23:02:25.268Z,23.20
2022-12-04T23:04:55.636Z,21.20
2022-12-04T23:07:25.724Z,21.10
2022-12-04T23:09:56.154Z,21.90
2022-12-04T23:12:28.039Z,21.80
2022-12-04T23:14:57.944Z,22.50
2022-12-04T23:17:28.502Z,22.60
2022-12-04T23:19:58.499Z,20.00
2022-12-04T23:22:29.087Z,20.90
2022-12-04T23:24:59.417Z,21.60
2022-12-04T23:27:31.945Z,22.00
2022-12-04T23:30:02.945Z,21.30
2022-12-04T23:32:33.104Z,20.90
2022-12-04T23:35:03.082Z,18.90
2022-12-04T23:37:33.027Z,19.90
2022-12-04T23:40:04.565Z,21.70
2022-12-04T23:42:34.097Z,26.10
2022-12-04T23:45:07.655Z,27.80
2022-12-04T23:47:37.496Z,24.30
2022-12-04T23:50:07.282Z,21.30
2022-12-04T23:52:37.304Z,20.80
2022-12-04T23:55:08.329Z,21.70
2022-12-04T23:57:37.148Z,21.90
